Terminal Aerodrome Forecast
Issued by NWS Hastings, NE

Home | Current Version | Previous Version | Text Only | Print | Product List | Glossary On
Versions: 1 2 3 4 5 6 7 8 9 10 11 12 13 14 15 16 17 18 19 20 21 22 23 24 25 26
000
FTUS43 KGID 302335
TAFGRI
TAF
KGRI 302335Z 3100/3124 15009KT P6SM FEW150
     FM310500 17011KT P6SM SCT150 WS005/20042KT
     FM311400 18013KT P6SM SCT150
     FM312300 VRB06KT P6SM VCTS SCT040CB BKN150=

USA.gov is the U.S. government's official web portal to all federal, state and local government web resources and services.